Time;durP1;ratioP1;P1;durP2;ratioP2;P2;SDS_P1;SDS_P2;PMS_P1;PMS_P2;Temp;Humidity;BMP_temperature;BMP_pressure;BME280_temperature;BME280_humidity;BME280_pressure;Samples;Min_cycle;Max_cycle;Signal;HPM_P1;HPM_P2
2023/01/19 00:01:53;;;;;;;73.03;10.73;;;;;;;;;;4402599;32;318458;-83
2023/01/19 00:04:20;;;;;;;90.10;11.47;;;;;;;;;;4392320;32;319625;-84
2023/01/19 00:06:48;;;;;;;57.13;9.93;;;;;;;;;;4402189;32;318559;-84
2023/01/19 00:09:14;;;;;;;69.00;12.97;;;;;;;;;;4392505;32;318569;-84
2023/01/19 00:11:41;;;;;;;85.67;11.37;;;;;;;;;;4400993;32;319517;-84
2023/01/19 00:14:08;;;;;;;79.27;10.93;;;;;;;;;;4390451;32;318887;-85
2023/01/19 00:16:35;;;;;;;72.20;11.93;;;;;;;;;;4402096;32;318583;-85
2023/01/19 00:19:02;;;;;;;67.40;10.53;;;;;;;;;;4402355;32;319275;-83
2023/01/19 00:21:28;;;;;;;88.50;12.70;;;;;;;;;;4391170;32;318994;-83
2023/01/19 00:23:56;;;;;;;62.30;9.37;;;;;;;;;;4401038;32;319634;-84
2023/01/19 00:26:23;;;;;;;85.80;13.63;;;;;;;;;;4390880;32;318202;-85
2023/01/19 00:28:51;;;;;;;83.43;13.93;;;;;;;;;;4401174;32;319569;-84
2023/01/19 00:31:20;;;;;;;84.73;11.10;;;;;;;;;;4391077;32;318447;-84
2023/01/19 00:33:48;;;;;;;53.67;10.90;;;;;;;;;;4402243;32;319003;-83
2023/01/19 00:36:15;;;;;;;68.67;11.43;;;;;;;;;;4392362;32;319201;-84
2023/01/19 00:38:42;;;;;;;66.83;12.60;;;;;;;;;;4400201;32;343175;-83
2023/01/19 00:41:10;;;;;;;67.77;11.23;;;;;;;;;;4392165;32;319368;-86
2023/01/19 00:43:36;;;;;;;79.97;13.77;;;;;;;;;;4402158;32;319391;-83
2023/01/19 00:46:03;;;;;;;79.67;11.40;;;;;;;;;;4402128;32;319507;-82
2023/01/19 00:48:29;;;;;;;79.33;10.87;;;;;;;;;;4390948;32;319614;-85
2023/01/19 00:50:56;;;;;;;77.87;12.23;;;;;;;;;;4399997;32;359727;-84
2023/01/19 00:53:23;;;;;;;67.57;11.27;;;;;;;;;;4391031;32;319289;-83
2023/01/19 00:55:50;;;;;;;79.50;11.60;;;;;;;;;;4401074;32;318759;-83
2023/01/19 00:58:18;;;;;;;73.70;10.90;;;;;;;;;;4391930;32;318509;-84
2023/01/19 01:00:45;;;;;;;83.33;10.87;;;;;;;;;;4402111;32;319241;-83
2023/01/19 01:03:12;;;;;;;82.30;12.60;;;;;;;;;;4391998;32;319401;-83
2023/01/19 01:05:41;;;;;;;92.90;11.20;;;;;;;;;;4400918;32;318491;-83
2023/01/19 01:08:07;;;;;;;75.63;11.53;;;;;;;;;;4391707;32;319207;-85
2023/01/19 01:10:34;;;;;;;66.70;12.57;;;;;;;;;;4401205;32;319591;-83
2023/01/19 01:13:01;;;;;;;72.63;12.27;;;;;;;;;;4402023;32;319204;-83
2023/01/19 01:15:29;;;;;;;79.13;11.73;;;;;;;;;;4392397;32;319894;-83
2023/01/19 01:17:56;;;;;;;81.97;11.13;;;;;;;;;;4401966;32;319552;-84
2023/01/19 01:20:25;;;;;;;75.33;11.03;;;;;;;;;;4392353;32;318477;-84
2023/01/19 01:22:54;;;;;;;78.77;10.13;;;;;;;;;;4402724;32;318439;-83
2023/01/19 01:25:23;;;;;;;75.80;12.67;;;;;;;;;;4394752;32;319621;-83
2023/01/19 01:27:50;;;;;;;65.63;12.00;;;;;;;;;;4404767;32;319579;-85
2023/01/19 01:30:17;;;;;;;79.90;11.50;;;;;;;;;;4394970;32;319662;-84
2023/01/19 01:32:45;;;;;;;94.70;13.57;;;;;;;;;;4404329;32;319434;-83
2023/01/19 01:35:13;;;;;;;91.07;13.30;;;;;;;;;;4393547;32;318977;-84
2023/01/19 01:37:41;;;;;;;71.93;10.43;;;;;;;;;;4403824;32;336854;-83
2023/01/19 01:40:11;;;;;;;69.90;8.90;;;;;;;;;;4394640;32;319301;-84
2023/01/19 01:42:39;;;;;;;60.83;10.47;;;;;;;;;;4404080;32;318639;-84
2023/01/19 01:45:23;;;;;;;63.53;12.47;;;;;;;;;;4404641;32;319422;-83
2023/01/19 01:47:52;;;;;;;74.97;10.63;;;;;;;;;;4391332;32;418034;-84
2023/01/19 01:50:21;;;;;;;98.43;13.97;;;;;;;;;;4394259;32;319310;-85
2023/01/19 01:52:51;;;;;;;73.37;12.23;;;;;;;;;;4402498;32;329158;-83
2023/01/19 01:55:20;;;;;;;98.10;12.73;;;;;;;;;;4394494;32;319613;-83
2023/01/19 01:57:52;;;;;;;71.20;10.80;;;;;;;;;;4404035;32;319425;-83
2023/01/19 02:00:19;;;;;;;65.30;11.50;;;;;;;;;;4393157;32;319715;-83
2023/01/19 02:02:53;;;;;;;66.40;11.40;;;;;;;;;;4403933;32;319550;-82
2023/01/19 02:05:25;;;;;;;87.67;10.30;;;;;;;;;;4394347;32;318853;-82
2023/01/19 02:13:29;;;;;;;61.00;9.80;;;;;;;;;;4392213;32;343234;-83
2023/01/19 02:15:57;;;;;;;72.10;12.17;;;;;;;;;;4402810;32;318332;-82
2023/01/19 02:18:27;;;;;;;62.90;12.70;;;;;;;;;;4392286;32;319520;-82
2023/01/19 02:21:07;;;;;;;90.63;12.90;;;;;;;;;;4403260;32;318575;-83
2023/01/19 02:23:40;;;;;;;80.37;10.37;;;;;;;;;;4391014;32;418147;-83
2023/01/19 02:26:09;;;;;;;59.73;9.27;;;;;;;;;;4393753;32;319785;-82
2023/01/19 02:28:38;;;;;;;51.17;8.83;;;;;;;;;;4402475;32;318577;-83
2023/01/19 02:31:06;;;;;;;48.53;8.90;;;;;;;;;;4402243;32;334924;-83
2023/01/19 02:33:33;;;;;;;80.20;10.73;;;;;;;;;;4389918;32;415237;-82
2023/01/19 02:36:00;;;;;;;56.07;10.60;;;;;;;;;;4402945;32;319595;-83
2023/01/19 02:38:28;;;;;;;64.27;8.67;;;;;;;;;;4392156;32;319496;-83
2023/01/19 02:40:59;;;;;;;57.83;8.07;;;;;;;;;;4403932;32;317979;-85
2023/01/19 02:43:28;;;;;;;57.37;9.80;;;;;;;;;;4393672;32;317377;-83
2023/01/19 02:45:55;;;;;;;52.20;9.23;;;;;;;;;;4402307;32;318399;-84
2023/01/19 02:48:22;;;;;;;53.97;9.57;;;;;;;;;;4392144;32;318621;-84
2023/01/19 02:50:51;;;;;;;56.30;9.03;;;;;;;;;;4402265;32;317694;-83
2023/01/19 02:53:42;;;;;;;52.13;9.53;;;;;;;;;;4391643;32;335222;-85
2023/01/19 02:56:29;;;;;;;34.80;6.27;;;;;;;;;;4393691;32;318205;-83
2023/01/19 02:59:03;;;;;;;71.63;8.80;;;;;;;;;;4402595;32;352224;-84
2023/01/19 03:01:40;;;;;;;59.20;10.23;;;;;;;;;;4393557;32;318124;-83
2023/01/19 03:04:15;;;;;;;66.60;8.47;;;;;;;;;;4391576;32;319243;-83
2023/01/19 03:06:49;;;;;;;45.83;6.37;;;;;;;;;;4403282;32;317490;-85
2023/01/19 03:09:26;;;;;;;60.37;8.57;;;;;;;;;;4393244;32;318072;-84
2023/01/19 03:12:02;;;;;;;48.83;8.03;;;;;;;;;;4402162;32;318249;-83
2023/01/19 03:14:30;;;;;;;66.70;10.03;;;;;;;;;;4392254;32;318234;-83
2023/01/19 03:17:01;;;;;;;62.33;9.80;;;;;;;;;;4401343;32;337333;-83
2023/01/19 03:19:33;;;;;;;69.73;9.17;;;;;;;;;;4393426;32;318127;-83
2023/01/19 03:22:02;;;;;;;61.53;9.00;;;;;;;;;;4402037;32;318327;-84
2023/01/19 03:24:33;;;;;;;51.13;8.30;;;;;;;;;;4393217;32;318334;-84
2023/01/19 03:27:06;;;;;;;58.47;8.33;;;;;;;;;;4402929;32;317452;-82
2023/01/19 03:29:37;;;;;;;68.17;11.13;;;;;;;;;;4389355;32;417288;-83
2023/01/19 03:32:09;;;;;;;61.97;7.93;;;;;;;;;;4401855;32;319398;-85
2023/01/19 03:34:38;;;;;;;55.20;7.50;;;;;;;;;;4389237;32;415865;-83
2023/01/19 03:37:07;;;;;;;61.00;7.90;;;;;;;;;;4402322;32;322146;-83
2023/01/19 03:39:34;;;;;;;58.37;8.53;;;;;;;;;;4389919;32;417573;-85
2023/01/19 03:42:05;;;;;;;45.67;7.00;;;;;;;;;;4402815;32;318404;-84
2023/01/19 03:44:37;;;;;;;53.57;7.60;;;;;;;;;;4389395;32;417422;-83
2023/01/19 03:47:05;;;;;;;36.90;8.03;;;;;;;;;;4401707;32;318514;-85
2023/01/19 03:49:34;;;;;;;59.23;9.17;;;;;;;;;;4387744;32;417359;-85
2023/01/19 03:52:01;;;;;;;50.07;7.93;;;;;;;;;;4401490;32;318825;-83
2023/01/19 03:54:27;;;;;;;43.97;7.00;;;;;;;;;;4391749;32;318617;-83
2023/01/19 03:56:54;;;;;;;54.93;8.43;;;;;;;;;;4402536;32;317512;-84
2023/01/19 03:59:22;;;;;;;59.00;8.03;;;;;;;;;;4392858;32;318323;-83
2023/01/19 04:01:49;;;;;;;56.43;6.83;;;;;;;;;;4402716;32;317686;-84
2023/01/19 04:04:16;;;;;;;45.40;7.00;;;;;;;;;;4392683;32;318347;-84
2023/01/19 04:06:43;;;;;;;60.13;9.40;;;;;;;;;;4402588;32;318418;-84
2023/01/19 04:09:10;;;;;;;53.70;8.33;;;;;;;;;;4392456;32;318200;-84
2023/01/19 04:11:37;;;;;;;47.80;7.03;;;;;;;;;;4402438;32;317735;-83
2023/01/19 04:14:04;;;;;;;54.37;8.30;;;;;;;;;;4402400;32;317567;-83
2023/01/19 04:16:32;;;;;;;48.43;7.27;;;;;;;;;;4392458;32;318439;-84
2023/01/19 04:18:59;;;;;;;47.43;7.57;;;;;;;;;;4402468;32;317780;-83
2023/01/19 04:21:26;;;;;;;43.83;7.43;;;;;;;;;;4392115;32;318335;-84
2023/01/19 04:23:53;;;;;;;55.07;7.43;;;;;;;;;;4401137;32;318624;-83
2023/01/19 04:26:20;;;;;;;43.03;7.93;;;;;;;;;;4389910;32;358590;-84
2023/01/19 04:28:46;;;;;;;65.33;9.40;;;;;;;;;;4401274;32;318272;-84
2023/01/19 04:31:13;;;;;;;49.47;7.53;;;;;;;;;;4390625;32;338056;-84
2023/01/19 04:33:41;;;;;;;54.27;7.40;;;;;;;;;;4402095;32;317501;-83
2023/01/19 04:36:08;;;;;;;63.43;10.33;;;;;;;;;;4392605;32;318263;-83
2023/01/19 04:38:35;;;;;;;55.13;8.10;;;;;;;;;;4401160;32;342494;-84
2023/01/19 04:41:02;;;;;;;56.87;8.17;;;;;;;;;;4402359;32;317649;-84
2023/01/19 04:43:29;;;;;;;62.40;10.07;;;;;;;;;;4392168;32;318264;-83
2023/01/19 04:45:56;;;;;;;51.27;7.30;;;;;;;;;;4402171;32;318526;-83
2023/01/19 04:48:23;;;;;;;55.07;9.50;;;;;;;;;;4392082;32;318338;-83
2023/01/19 04:50:52;;;;;;;58.50;9.50;;;;;;;;;;4401055;32;318176;-83
2023/01/19 04:53:19;;;;;;;50.37;9.27;;;;;;;;;;4392295;32;318253;-83
2023/01/19 04:55:46;;;;;;;45.67;8.07;;;;;;;;;;4402372;32;318431;-84
2023/01/19 04:58:14;;;;;;;49.83;6.30;;;;;;;;;;4393250;32;348644;-83
2023/01/19 05:00:41;;;;;;;42.97;8.03;;;;;;;;;;4405157;32;318409;-83
2023/01/19 05:03:08;;;;;;;66.47;9.50;;;;;;;;;;4393720;32;318798;-83
2023/01/19 05:05:37;;;;;;;53.10;8.03;;;;;;;;;;4403791;32;318935;-84
2023/01/19 05:08:06;;;;;;;72.17;8.07;;;;;;;;;;4404530;32;318294;-84
2023/01/19 05:10:33;;;;;;;56.23;9.30;;;;;;;;;;4391025;32;417246;-83
2023/01/19 05:12:59;;;;;;;75.43;11.53;;;;;;;;;;4403359;32;318467;-83
2023/01/19 05:15:26;;;;;;;55.73;9.67;;;;;;;;;;4394706;32;319119;-83
2023/01/19 05:17:53;;;;;;;53.00;9.13;;;;;;;;;;4404237;32;318567;-83
2023/01/19 05:20:20;;;;;;;67.20;9.30;;;;;;;;;;4393595;32;317756;-83
2023/01/19 05:22:49;;;;;;;104.03;24.97;;;;;;;;;;4402285;32;356379;-83
2023/01/19 05:25:17;;;;;;;55.20;8.03;;;;;;;;;;4393452;32;320546;-83
2023/01/19 05:27:44;;;;;;;69.07;10.33;;;;;;;;;;4404227;32;318355;-83
2023/01/19 05:30:12;;;;;;;119.23;26.40;;;;;;;;;;4393335;32;359123;-83
2023/01/19 05:32:39;;;;;;;55.83;11.03;;;;;;;;;;4401733;32;319756;-83
2023/01/19 05:35:06;;;;;;;66.87;11.43;;;;;;;;;;4403281;32;318913;-83
2023/01/19 05:37:33;;;;;;;67.20;12.73;;;;;;;;;;4391071;32;418577;-84
2023/01/19 05:40:00;;;;;;;75.87;13.20;;;;;;;;;;4404310;32;319427;-83
2023/01/19 05:42:28;;;;;;;72.10;13.47;;;;;;;;;;4394229;32;319741;-84
2023/01/19 05:44:55;;;;;;;84.47;10.33;;;;;;;;;;4403972;32;319362;-83
2023/01/19 05:47:22;;;;;;;83.10;12.40;;;;;;;;;;4392766;32;319373;-84
2023/01/19 05:49:48;;;;;;;81.97;12.60;;;;;;;;;;4402437;32;355365;-83
2023/01/19 05:52:15;;;;;;;61.58;12.88;;;;;;;;;;4393560;32;319786;-83
2023/01/19 05:54:42;;;;;;;66.10;10.43;;;;;;;;;;4403995;32;318556;-83
2023/01/19 05:57:09;;;;;;;101.37;11.67;;;;;;;;;;4392277;32;319766;-84
2023/01/19 05:59:37;;;;;;;92.47;11.30;;;;;;;;;;4403440;32;320399;-84
2023/01/19 06:02:04;;;;;;;85.90;14.13;;;;;;;;;;4403135;32;319182;-84
2023/01/19 06:04:31;;;;;;;72.13;11.83;;;;;;;;;;4392165;32;319747;-84
2023/01/19 06:06:58;;;;;;;70.70;13.83;;;;;;;;;;4403539;32;319075;-84
2023/01/19 06:09:24;;;;;;;57.07;11.57;;;;;;;;;;4393146;32;350429;-85
2023/01/19 06:11:53;;;;;;;104.03;11.43;;;;;;;;;;4403214;32;319280;-83
2023/01/19 06:14:19;;;;;;;66.33;10.93;;;;;;;;;;4393267;32;320491;-83
2023/01/19 06:16:47;;;;;;;72.40;12.73;;;;;;;;;;4403611;32;319545;-83
2023/01/19 06:19:14;;;;;;;75.97;13.23;;;;;;;;;;4394623;32;319614;-84
2023/01/19 06:21:48;;;;;;;82.50;12.87;;;;;;;;;;4405026;32;319365;-85
2023/01/19 06:24:15;;;;;;;58.43;11.90;;;;;;;;;;4393746;32;319240;-83
2023/01/19 06:26:42;;;;;;;80.63;14.20;;;;;;;;;;4402336;32;319442;-84
2023/01/19 06:29:09;;;;;;;86.53;12.50;;;;;;;;;;4393540;32;319380;-84
2023/01/19 06:31:36;;;;;;;61.10;10.37;;;;;;;;;;4402740;32;319003;-84
2023/01/19 06:34:04;;;;;;;60.00;12.20;;;;;;;;;;4401634;32;318705;-84
2023/01/19 06:36:31;;;;;;;78.87;12.33;;;;;;;;;;4392290;32;319342;-84
2023/01/19 06:38:57;;;;;;;60.77;12.13;;;;;;;;;;4401397;32;318701;-84
2023/01/19 06:41:24;;;;;;;67.83;12.57;;;;;;;;;;4392877;32;319189;-83
2023/01/19 06:43:54;;;;;;;88.97;15.57;;;;;;;;;;4402252;32;319391;-83
2023/01/19 06:46:20;;;;;;;64.50;11.67;;;;;;;;;;4391234;32;322852;-83
2023/01/19 06:48:47;;;;;;;144.50;58.37;;;;;;;;;;4403082;32;318739;-84
2023/01/19 06:51:15;;;;;;;64.60;13.43;;;;;;;;;;4392300;32;320739;-83
2023/01/19 06:53:42;;;;;;;65.17;20.73;;;;;;;;;;4402718;32;319317;-84
2023/01/19 06:56:09;;;;;;;72.50;12.23;;;;;;;;;;4391206;32;318689;-84
2023/01/19 06:58:38;;;;;;;72.70;13.63;;;;;;;;;;4401873;32;319302;-84
2023/01/19 07:01:06;;;;;;;79.40;11.17;;;;;;;;;;4400991;32;317429;-84
2023/01/19 07:03:34;;;;;;;75.53;11.50;;;;;;;;;;4387788;32;418452;-84
2023/01/19 07:06:01;;;;;;;68.67;11.60;;;;;;;;;;4402144;32;319632;-82
2023/01/19 07:08:30;;;;;;;87.83;17.73;;;;;;;;;;4391348;32;319020;-85
2023/01/19 07:10:59;;;;;;;104.67;16.50;;;;;;;;;;4401852;32;319329;-85
2023/01/19 07:13:29;;;;;;;84.60;18.27;;;;;;;;;;4391239;32;320630;-85
2023/01/19 07:15:56;;;;;;;85.57;20.60;;;;;;;;;;4402305;32;318633;-85
2023/01/19 07:18:23;;;;;;;63.23;15.27;;;;;;;;;;4390449;32;319343;-84
2023/01/19 07:20:49;;;;;;;92.60;17.83;;;;;;;;;;4401454;32;318480;-84
2023/01/19 07:23:17;;;;;;;108.37;15.27;;;;;;;;;;4391685;32;319527;-84
2023/01/19 07:25:46;;;;;;;68.77;15.23;;;;;;;;;;4401745;32;318529;-84
2023/01/19 07:28:14;;;;;;;75.90;14.37;;;;;;;;;;4391759;32;319249;-84
2023/01/19 07:30:41;;;;;;;70.00;12.03;;;;;;;;;;4403442;32;319565;-84
2023/01/19 07:33:08;;;;;;;78.83;11.20;;;;;;;;;;4392493;32;319608;-84
2023/01/19 07:35:36;;;;;;;67.73;11.37;;;;;;;;;;4402384;32;318478;-84
2023/01/19 07:38:03;;;;;;;84.47;13.20;;;;;;;;;;4401545;32;317446;-84
2023/01/19 07:40:30;;;;;;;69.43;12.50;;;;;;;;;;4390899;32;319292;-83
2023/01/19 07:42:58;;;;;;;62.60;12.07;;;;;;;;;;4401007;32;318418;-84
2023/01/19 07:45:26;;;;;;;62.27;12.47;;;;;;;;;;4390871;32;319219;-83
2023/01/19 07:47:52;;;;;;;75.60;15.57;;;;;;;;;;4400611;32;319288;-83
2023/01/19 07:50:23;;;;;;;67.30;10.53;;;;;;;;;;4391757;32;319326;-85
2023/01/19 07:52:51;;;;;;;50.93;10.97;;;;;;;;;;4400552;32;319698;-83
2023/01/19 07:55:18;;;;;;;91.47;14.47;;;;;;;;;;4391998;32;319384;-83
2023/01/19 07:57:45;;;;;;;67.37;12.87;;;;;;;;;;4401933;32;318653;-82
2023/01/19 08:00:14;;;;;;;59.23;11.07;;;;;;;;;;4392334;32;319747;-83
2023/01/19 08:02:41;;;;;;;76.13;15.17;;;;;;;;;;4401832;32;319209;-82
2023/01/19 08:05:08;;;;;;;77.70;14.57;;;;;;;;;;4391279;32;348960;-84
2023/01/19 08:07:35;;;;;;;74.17;12.00;;;;;;;;;;4401080;32;319192;-83
2023/01/19 08:10:02;;;;;;;68.43;12.50;;;;;;;;;;4403564;32;319400;-83
2023/01/19 08:12:29;;;;;;;102.07;44.40;;;;;;;;;;4395066;32;319228;-83
2023/01/19 08:14:55;;;;;;;66.47;13.90;;;;;;;;;;4401801;32;320399;-83
2023/01/19 08:17:23;;;;;;;65.37;11.13;;;;;;;;;;4392344;32;319584;-82
2023/01/19 08:19:50;;;;;;;65.30;10.67;;;;;;;;;;4402669;32;318662;-82
2023/01/19 08:22:17;;;;;;;57.00;10.27;;;;;;;;;;4392070;32;319437;-83
2023/01/19 08:24:44;;;;;;;65.43;10.33;;;;;;;;;;4402901;32;319387;-83
2023/01/19 08:27:11;;;;;;;59.60;10.87;;;;;;;;;;4390955;32;319370;-86
2023/01/19 08:29:37;;;;;;;72.60;12.50;;;;;;;;;;4402639;32;318526;-83
2023/01/19 08:32:05;;;;;;;65.10;10.77;;;;;;;;;;4406567;32;318788;-83
2023/01/19 08:34:33;;;;;;;53.33;10.93;;;;;;;;;;4391598;32;417897;-83
2023/01/19 08:37:00;;;;;;;54.53;10.00;;;;;;;;;;4404415;32;319509;-85
2023/01/19 08:39:27;;;;;;;53.87;11.47;;;;;;;;;;4392467;32;360745;-84
2023/01/19 08:41:54;;;;;;;57.90;10.57;;;;;;;;;;4402799;32;344650;-84
2023/01/19 08:44:21;;;;;;;63.40;10.73;;;;;;;;;;4393731;32;358560;-84
2023/01/19 08:46:48;;;;;;;58.97;9.80;;;;;;;;;;4403130;32;319198;-84
2023/01/19 08:49:15;;;;;;;65.83;10.47;;;;;;;;;;4393005;32;318186;-82
2023/01/19 08:51:45;;;;;;;88.40;30.77;;;;;;;;;;4403067;32;319680;-82
2023/01/19 08:54:12;;;;;;;78.10;15.03;;;;;;;;;;4394708;32;318752;-85
2023/01/19 08:56:39;;;;;;;69.13;11.40;;;;;;;;;;4404617;32;318432;-85
2023/01/19 08:59:06;;;;;;;44.50;10.37;;;;;;;;;;4403317;32;319370;-84
2023/01/19 09:01:33;;;;;;;63.43;11.13;;;;;;;;;;4375364;32;418295;-85
2023/01/19 09:03:59;;;;;;;65.30;11.10;;;;;;;;;;4388954;32;319423;-82
2023/01/19 09:06:27;;;;;;;49.97;12.17;;;;;;;;;;4378751;32;318512;-83
2023/01/19 09:08:56;;;;;;;60.70;10.77;;;;;;;;;;4388860;32;319583;-84
2023/01/19 09:11:23;;;;;;;56.37;9.10;;;;;;;;;;4379186;32;319269;-84
2023/01/19 09:13:52;;;;;;;69.90;11.47;;;;;;;;;;4408209;32;318656;-83
2023/01/19 09:16:19;;;;;;;62.07;11.80;;;;;;;;;;4392850;32;319227;-85
2023/01/19 09:18:46;;;;;;;67.33;12.17;;;;;;;;;;4403788;32;318556;-85
2023/01/19 09:21:13;;;;;;;60.80;11.10;;;;;;;;;;4394051;32;318570;-83
2023/01/19 09:23:40;;;;;;;62.93;11.30;;;;;;;;;;4404046;32;319383;-85
2023/01/19 09:26:10;;;;;;;66.43;10.30;;;;;;;;;;4393931;32;319374;-88
2023/01/19 09:28:37;;;;;;;65.50;12.30;;;;;;;;;;4403380;32;318599;-85
2023/01/19 09:31:06;;;;;;;63.40;11.17;;;;;;;;;;4402474;32;318478;-85
2023/01/19 09:33:33;;;;;;;56.57;11.50;;;;;;;;;;4389544;32;418499;-85
2023/01/19 09:36:00;;;;;;;66.13;15.50;;;;;;;;;;4402546;32;355156;-85
2023/01/19 09:38:30;;;;;;;65.73;15.30;;;;;;;;;;4393616;32;319205;-85
2023/01/19 09:40:57;;;;;;;71.93;14.67;;;;;;;;;;4402764;32;318660;-83
2023/01/19 09:43:35;;;;;;;64.90;12.60;;;;;;;;;;4392743;32;319387;-87
2023/01/19 09:46:05;;;;;;;43.40;8.33;;;;;;;;;;4402758;32;319285;-84
2023/01/19 09:48:42;;;;;;;54.67;14.73;;;;;;;;;;4390917;32;417270;-84
2023/01/19 09:51:13;;;;;;;62.43;11.57;;;;;;;;;;4392845;32;319200;-85
2023/01/19 09:53:50;;;;;;;48.43;8.60;;;;;;;;;;4403561;32;319321;-85
2023/01/19 09:56:19;;;;;;;66.05;12.55;;;;;;;;;;4393073;32;317630;-84
2023/01/19 09:58:48;;;;;;;60.47;10.30;;;;;;;;;;4401958;32;318775;-85
2023/01/19 10:01:39;;;;;;;67.17;11.57;;;;;;;;;;4392023;32;319357;-85
2023/01/19 10:04:29;;;;;;;73.00;16.03;;;;;;;;;;4401807;32;319394;-86
2023/01/19 10:07:13;;;;;;;60.67;10.07;;;;;;;;;;4390340;32;420882;-86
2023/01/19 10:10:02;;;;;;;63.53;12.40;;;;;;;;;;4388316;32;419745;-85
2023/01/19 10:12:37;;;;;;;69.53;11.87;;;;;;;;;;4392698;32;318595;-85
2023/01/19 10:15:15;;;;;;;63.50;14.27;;;;;;;;;;4401631;32;319209;-85
2023/01/19 10:17:51;;;;;;;56.47;11.67;;;;;;;;;;4389732;32;419369;-86
2023/01/19 10:20:26;;;;;;;63.17;10.07;;;;;;;;;;4392368;32;319319;-85
2023/01/19 10:22:53;;;;;;;66.83;16.87;;;;;;;;;;4402636;32;319635;-86
2023/01/19 10:25:23;;;;;;;65.00;13.07;;;;;;;;;;4392571;32;318599;-85
2023/01/19 10:27:50;;;;;;;47.40;9.67;;;;;;;;;;4402857;32;319487;-85
2023/01/19 10:30:22;;;;;;;51.60;10.00;;;;;;;;;;4392533;32;318541;-85
2023/01/19 10:32:52;;;;;;;59.07;15.40;;;;;;;;;;4401645;32;319367;-85
2023/01/19 10:35:23;;;;;;;54.23;10.70;;;;;;;;;;4390690;32;344558;-86
2023/01/19 10:37:51;;;;;;;84.50;33.27;;;;;;;;;;4402869;32;318622;-85
2023/01/19 10:40:28;;;;;;;47.43;10.57;;;;;;;;;;4392707;32;318714;-85
2023/01/19 10:42:56;;;;;;;47.17;11.77;;;;;;;;;;4401207;32;319216;-85
2023/01/19 10:45:28;;;;;;;56.57;10.27;;;;;;;;;;4392624;32;318700;-86
2023/01/19 10:47:57;;;;;;;48.08;9.50;;;;;;;;;;4402652;32;318619;-84
2023/01/19 10:50:26;;;;;;;37.53;9.33;;;;;;;;;;4391442;32;318689;-85
2023/01/19 10:52:55;;;;;;;44.67;10.73;;;;;;;;;;4402424;32;318358;-85
2023/01/19 10:55:28;;;;;;;41.47;6.63;;;;;;;;;;4392197;32;319507;-85
2023/01/19 10:57:56;;;;;;;41.70;8.10;;;;;;;;;;4402525;32;317308;-84
2023/01/19 11:00:32;;;;;;;54.43;9.87;;;;;;;;;;4392525;32;318369;-85
2023/01/19 11:03:00;;;;;;;77.57;25.27;;;;;;;;;;4402900;32;317492;-85
2023/01/19 11:05:29;;;;;;;51.73;9.07;;;;;;;;;;4392420;32;319240;-85
2023/01/19 11:07:56;;;;;;;48.97;8.57;;;;;;;;;;4401911;32;317414;-84
2023/01/19 11:10:24;;;;;;;47.93;10.23;;;;;;;;;;4392273;32;318594;-84
2023/01/19 11:13:06;;;;;;;43.20;12.73;;;;;;;;;;4401142;32;319362;-84
2023/01/19 11:15:40;;;;;;;38.73;7.33;;;;;;;;;;4389215;32;420962;-84
2023/01/19 11:18:07;;;;;;;37.20;7.53;;;;;;;;;;4393087;32;317778;-88
2023/01/19 11:20:48;;;;;;;46.75;8.52;;;;;;;;;;4402397;32;318243;-85
2023/01/19 11:23:27;;;;;;;43.75;8.70;;;;;;;;;;4392620;32;318544;-85
2023/01/19 11:25:59;;;;;;;46.13;7.80;;;;;;;;;;4401334;32;317675;-85
2023/01/19 11:28:29;;;;;;;38.90;8.98;;;;;;;;;;4392113;32;318558;-85
2023/01/19 11:31:00;;;;;;;28.77;7.60;;;;;;;;;;4404180;32;317667;-85
2023/01/19 11:33:33;;;;;;;35.60;7.00;;;;;;;;;;4392329;32;318514;-85
2023/01/19 11:36:06;;;;;;;38.83;6.50;;;;;;;;;;4401055;32;318246;-84
2023/01/19 11:38:42;;;;;;;42.67;8.13;;;;;;;;;;4388084;32;418079;-85
2023/01/19 11:41:18;;;;;;;46.47;6.77;;;;;;;;;;4392877;32;318309;-85
2023/01/19 11:43:47;;;;;;;33.70;7.32;;;;;;;;;;4400706;32;318216;-85
2023/01/19 11:46:16;;;;;;;23.73;5.40;;;;;;;;;;4391926;32;317551;-85
2023/01/19 11:48:47;;;;;;;31.75;5.68;;;;;;;;;;4400705;32;318149;-85
2023/01/19 11:51:17;;;;;;;32.22;6.22;;;;;;;;;;4391427;32;318232;-85
2023/01/19 11:53:49;;;;;;;41.95;6.93;;;;;;;;;;4401333;32;317326;-85
2023/01/19 11:56:16;;;;;;;27.23;6.00;;;;;;;;;;4391318;32;318621;-83
2023/01/19 11:58:45;;;;;;;48.83;9.13;;;;;;;;;;4401668;32;317415;-85
2023/01/19 12:01:19;;;;;;;33.05;6.10;;;;;;;;;;4388793;32;318349;-85
2023/01/19 12:03:53;;;;;;;30.50;6.25;;;;;;;;;;4400088;32;317392;-85
2023/01/19 12:06:25;;;;;;;31.33;7.03;;;;;;;;;;4389460;32;318492;-85
2023/01/19 12:08:55;;;;;;;23.98;5.45;;;;;;;;;;4400769;32;318368;-82
2023/01/19 12:11:29;;;;;;;24.67;6.75;;;;;;;;;;4391102;32;318159;-85
2023/01/19 12:13:55;;;;;;;29.92;9.13;;;;;;;;;;4400614;32;318277;-85
2023/01/19 12:16:27;;;;;;;36.33;6.73;;;;;;;;;;4390017;32;318433;-86
2023/01/19 12:18:58;;;;;;;42.62;7.03;;;;;;;;;;4401029;32;317577;-85
2023/01/19 12:21:25;;;;;;;43.47;8.35;;;;;;;;;;4391257;32;318185;-85
2023/01/19 12:24:01;;;;;;;33.17;6.37;;;;;;;;;;4401044;32;318363;-84
2023/01/19 12:26:36;;;;;;;41.58;6.75;;;;;;;;;;4391529;32;318274;-84
2023/01/19 12:29:12;;;;;;;31.73;8.63;;;;;;;;;;4400767;32;318204;-84
2023/01/19 12:31:42;;;;;;;32.92;7.72;;;;;;;;;;4387638;32;417110;-85
2023/01/19 12:34:40;;;;;;;33.88;8.32;;;;;;;;;;4392025;32;318252;-86
2023/01/19 12:37:35;;;;;;;41.08;8.70;;;;;;;;;;4339835;32;318546;-84
2023/01/19 12:40:17;;;;;;;29.80;5.40;;;;;;;;;;4385393;32;419485;-84
2023/01/19 12:42:48;;;;;;;26.20;4.80;;;;;;;;;;4388701;32;418482;-84
2023/01/19 12:45:17;;;;;;;30.10;5.62;;;;;;;;;;4391923;32;318226;-85
2023/01/19 12:47:52;;;;;;;27.43;5.63;;;;;;;;;;4401768;32;318712;-84
2023/01/19 12:50:22;;;;;;;34.43;6.27;;;;;;;;;;4391809;32;318069;-84
2023/01/19 12:52:55;;;;;;;23.62;4.62;;;;;;;;;;4401922;32;317742;-84
2023/01/19 12:55:26;;;;;;;31.47;5.83;;;;;;;;;;4391028;32;317566;-84
2023/01/19 12:58:01;;;;;;;28.92;6.18;;;;;;;;;;4402008;32;318374;-84
2023/01/19 13:00:36;;;;;;;27.55;5.32;;;;;;;;;;4390754;32;317743;-85
2023/01/19 13:03:39;;;;;;;27.42;5.50;;;;;;;;;;4400583;32;317766;-85
2023/01/19 13:06:06;;;;;;;28.27;6.68;;;;;;;;;;4397890;32;417602;-84
2023/01/19 13:08:59;;;;;;;28.30;5.28;;;;;;;;;;4388501;32;418297;-85
2023/01/19 13:11:26;;;;;;;27.73;5.40;;;;;;;;;;4391832;32;317612;-84
2023/01/19 13:14:28;;;;;;;18.33;4.45;;;;;;;;;;4401681;32;318296;-84
2023/01/19 13:17:05;;;;;;;31.03;7.70;;;;;;;;;;4383977;32;418299;-84
2023/01/19 13:19:50;;;;;;;27.73;5.20;;;;;;;;;;4394383;32;318264;-84
2023/01/19 13:23:03;;;;;;;34.47;6.70;;;;;;;;;;4392932;32;328143;-85
2023/01/19 13:25:34;;;;;;;25.67;5.20;;;;;;;;;;4362027;32;317688;-84
2023/01/19 13:28:02;;;;;;;29.93;4.63;;;;;;;;;;4401165;32;318607;-84
2023/01/19 13:30:30;;;;;;;15.03;3.70;;;;;;;;;;4393165;32;318046;-84
2023/01/19 13:33:03;;;;;;;24.30;4.83;;;;;;;;;;4404422;32;318403;-84
2023/01/19 13:35:31;;;;;;;28.23;6.73;;;;;;;;;;4394336;32;318317;-84
2023/01/19 13:37:58;;;;;;;25.48;4.78;;;;;;;;;;4403130;32;352341;-84
2023/01/19 13:40:33;;;;;;;16.67;4.57;;;;;;;;;;4393000;32;318143;-84
2023/01/19 13:43:01;;;;;;;25.47;5.10;;;;;;;;;;4404164;32;318555;-84
2023/01/19 13:45:32;;;;;;;21.63;4.97;;;;;;;;;;4394157;32;317989;-84
2023/01/19 13:48:01;;;;;;;27.77;5.55;;;;;;;;;;4404168;32;317590;-84
2023/01/19 13:50:30;;;;;;;34.25;5.70;;;;;;;;;;4393975;32;317286;-84
2023/01/19 13:52:58;;;;;;;25.95;5.50;;;;;;;;;;4403988;32;317478;-84
2023/01/19 13:55:27;;;;;;;23.85;5.55;;;;;;;;;;4392731;32;317666;-84
2023/01/19 13:57:54;;;;;;;22.67;6.37;;;;;;;;;;4402742;32;317563;-84
2023/01/19 14:00:23;;;;;;;26.42;5.35;;;;;;;;;;4392613;32;317550;-85
2023/01/19 14:02:59;;;;;;;20.58;5.80;;;;;;;;;;4402692;32;318500;-84
2023/01/19 14:05:28;;;;;;;17.50;6.45;;;;;;;;;;4393961;32;317981;-85
2023/01/19 14:08:05;;;;;;;26.08;5.53;;;;;;;;;;4402441;32;318150;-84
2023/01/19 14:10:33;;;;;;;25.90;5.07;;;;;;;;;;4389936;32;412183;-84
2023/01/19 14:13:01;;;;;;;26.20;5.70;;;;;;;;;;4403768;32;317603;-84
2023/01/19 14:15:28;;;;;;;15.88;4.43;;;;;;;;;;4392515;32;318777;-84
2023/01/19 14:18:11;;;;;;;26.10;6.40;;;;;;;;;;4402304;32;317536;-84
2023/01/19 14:20:38;;;;;;;23.90;5.55;;;;;;;;;;4389447;32;417892;-85
2023/01/19 14:23:26;;;;;;;22.37;5.65;;;;;;;;;;4403392;32;318384;-85
2023/01/19 14:25:53;;;;;;;29.40;6.85;;;;;;;;;;4389592;32;418386;-85
2023/01/19 14:28:38;;;;;;;28.33;7.83;;;;;;;;;;4393456;32;318662;-86
2023/01/19 14:31:19;;;;;;;30.07;7.57;;;;;;;;;;4402258;32;318293;-84